createdAt,value
2019-05-23T00:00:43.724Z,0.00
2019-05-23T00:01:43.707Z,0.00
2019-05-23T00:02:43.750Z,0.00
2019-05-23T00:03:44.611Z,0.00
2019-05-23T00:04:43.681Z,0.00
2019-05-23T00:05:43.776Z,0.00
2019-05-23T00:06:43.651Z,0.00
2019-05-23T00:07:43.640Z,0.00
2019-05-23T00:08:43.638Z,0.00
2019-05-23T00:09:43.623Z,0.00
2019-05-23T00:10:43.652Z,0.00
2019-05-23T00:11:43.671Z,0.00
2019-05-23T00:12:43.589Z,0.00
2019-05-23T00:13:43.585Z,0.00
2019-05-23T00:14:43.567Z,0.00
2019-05-23T00:15:43.566Z,0.00
2019-05-23T00:16:43.586Z,0.00
2019-05-23T00:17:43.554Z,0.00
2019-05-23T00:18:43.522Z,0.00
2019-05-23T00:19:43.513Z,0.00
2019-05-23T00:20:43.504Z,0.00
2019-05-23T00:21:43.538Z,0.00
2019-05-23T00:22:43.487Z,0.00
2019-05-23T00:23:43.498Z,0.00
2019-05-23T00:24:43.519Z,0.00
2019-05-23T00:25:43.453Z,0.00
2019-05-23T00:26:43.488Z,0.00
2019-05-23T00:27:43.444Z,0.00
2019-05-23T00:28:43.423Z,0.00
2019-05-23T00:29:43.486Z,0.00
2019-05-23T00:30:43.393Z,0.00
2019-05-23T00:31:43.400Z,0.00
2019-05-23T00:32:43.383Z,0.00
2019-05-23T00:33:43.364Z,0.00
2019-05-23T00:34:43.391Z,0.00
2019-05-23T00:35:43.360Z,0.00
2019-05-23T00:36:43.330Z,0.00
2019-05-23T00:37:43.322Z,0.00
2019-05-23T00:38:43.356Z,0.00
2019-05-23T00:39:43.343Z,0.00
2019-05-23T00:40:43.291Z,0.00
2019-05-23T00:41:43.350Z,0.00
2019-05-23T00:42:43.274Z,0.00
2019-05-23T00:43:43.257Z,0.00
2019-05-23T00:44:43.256Z,0.00
2019-05-23T00:45:43.287Z,0.00
2019-05-23T00:46:43.232Z,0.00
2019-05-23T00:47:43.225Z,0.00
2019-05-23T00:48:43.208Z,0.00
2019-05-23T00:49:43.196Z,0.00
2019-05-23T00:50:43.236Z,0.00
2019-05-23T00:51:43.175Z,0.00
2019-05-23T00:52:43.167Z,0.00
2019-05-23T00:53:43.167Z,0.00
2019-05-23T00:54:43.202Z,0.00
2019-05-23T00:55:43.133Z,0.00
2019-05-23T00:56:43.135Z,0.00
2019-05-23T00:57:43.116Z,0.00
2019-05-23T00:58:43.107Z,0.00
2019-05-23T00:59:43.176Z,0.00
2019-05-23T01:00:43.087Z,0.00
2019-05-23T01:01:43.118Z,0.00
2019-05-23T01:02:43.065Z,0.00
2019-05-23T01:03:43.053Z,0.00
2019-05-23T01:04:43.089Z,0.00
2019-05-23T01:05:43.097Z,0.00
2019-05-23T01:06:43.045Z,0.00
2019-05-23T01:07:43.007Z,0.00
2019-05-23T01:08:43.042Z,0.00
2019-05-23T01:09:43.027Z,0.00
2019-05-23T01:10:42.973Z,0.00
2019-05-23T01:11:42.986Z,0.00
2019-05-23T01:12:42.957Z,0.00
2019-05-23T01:13:42.948Z,0.00
2019-05-23T01:14:42.983Z,0.00
2019-05-23T01:15:42.962Z,0.00
2019-05-23T01:16:42.910Z,0.00
2019-05-23T01:17:42.932Z,0.00
2019-05-23T01:18:42.962Z,0.00
2019-05-23T01:19:42.894Z,0.00
2019-05-23T01:20:42.916Z,0.00
2019-05-23T01:21:42.913Z,0.00
2019-05-23T01:22:42.849Z,0.00
2019-05-23T01:23:42.867Z,0.00
2019-05-23T01:24:42.828Z,0.00
2019-05-23T01:25:42.864Z,0.00
2019-05-23T01:26:42.811Z,0.00
2019-05-23T01:27:42.798Z,0.00
2019-05-23T01:28:42.793Z,0.00
2019-05-23T01:29:42.794Z,0.00
2019-05-23T01:30:42.813Z,0.00
2019-05-23T01:31:42.805Z,0.00
2019-05-23T01:32:42.747Z,0.00
2019-05-23T01:33:42.732Z,0.00
2019-05-23T01:34:42.724Z,0.00
2019-05-23T01:35:42.780Z,0.00
2019-05-23T01:36:42.709Z,0.00
2019-05-23T01:37:42.697Z,0.00
2019-05-23T01:38:42.682Z,0.00
2019-05-23T01:39:42.718Z,0.00
2019-05-23T01:40:42.715Z,0.00
2019-05-23T01:41:42.660Z,0.00
2019-05-23T01:42:42.638Z,0.00
2019-05-23T01:43:42.633Z,0.00
2019-05-23T01:44:42.629Z,0.00
2019-05-23T01:45:42.653Z,0.00
2019-05-23T01:46:42.603Z,0.00
2019-05-23T01:47:42.614Z,0.00
2019-05-23T01:48:42.632Z,0.00
2019-05-23T01:49:42.571Z,0.00
2019-05-23T01:50:42.597Z,0.00
2019-05-23T01:51:42.542Z,0.00
2019-05-23T01:52:42.538Z,0.00
2019-05-23T01:53:42.596Z,0.00
2019-05-23T01:54:42.515Z,0.00
2019-05-23T01:55:42.501Z,0.00
2019-05-23T01:56:42.549Z,0.00
2019-05-23T01:57:42.487Z,0.00
2019-05-23T01:58:42.520Z,0.00
2019-05-23T01:59:42.484Z,0.00
2019-05-23T02:00:42.454Z,0.00
2019-05-23T02:01:42.440Z,0.00
2019-05-23T02:02:42.429Z,0.00
2019-05-23T02:03:42.490Z,0.00
2019-05-23T02:04:42.441Z,0.00
2019-05-23T02:05:42.397Z,0.00
2019-05-23T02:06:42.415Z,0.00
2019-05-23T02:07:42.383Z,0.00
2019-05-23T02:08:42.429Z,0.00
2019-05-23T02:09:42.354Z,0.00
2019-05-23T02:10:42.355Z,0.00
2019-05-23T02:11:42.345Z,0.00
2019-05-23T02:12:42.332Z,0.00
2019-05-23T02:13:42.360Z,0.00
2019-05-23T02:14:42.357Z,0.00
2019-05-23T02:15:42.290Z,0.00
2019-05-23T02:16:42.313Z,0.00
2019-05-23T02:17:42.328Z,0.00
2019-05-23T02:18:42.268Z,0.00
2019-05-23T02:19:42.298Z,0.00
2019-05-23T02:20:42.242Z,0.00
2019-05-23T02:21:42.240Z,0.00
2019-05-23T02:22:42.246Z,0.00
2019-05-23T02:23:42.277Z,0.00
2019-05-23T02:24:42.251Z,0.00
2019-05-23T02:25:42.188Z,0.00
2019-05-23T02:26:42.198Z,0.00
2019-05-23T02:27:42.171Z,0.00
2019-05-23T02:28:42.231Z,0.00
2019-05-23T02:29:42.150Z,0.00
2019-05-23T02:30:42.149Z,0.00
2019-05-23T02:31:42.136Z,0.00
2019-05-23T02:32:42.117Z,0.00
2019-05-23T02:33:42.153Z,0.00
2019-05-23T02:34:42.135Z,0.00
2019-05-23T02:35:42.087Z,0.00
2019-05-23T02:36:42.084Z,0.00
2019-05-23T02:37:42.067Z,0.00
2019-05-23T02:38:42.099Z,0.00
2019-05-23T02:39:42.052Z,0.00
2019-05-23T02:40:42.062Z,4.00
2019-05-23T02:41:42.020Z,4.00
2019-05-23T02:42:42.056Z,4.00
2019-05-23T02:43:42.026Z,4.00
2019-05-23T02:44:42.002Z,0.00
2019-05-23T02:45:41.983Z,4.00
2019-05-23T02:46:42.003Z,4.00
2019-05-23T02:47:42.009Z,4.00
2019-05-23T02:48:41.964Z,8.00
2019-05-23T02:49:41.955Z,4.00
2019-05-23T02:50:41.937Z,8.00
2019-05-23T02:51:41.926Z,4.00
2019-05-23T02:52:41.986Z,8.00
2019-05-23T02:53:41.903Z,8.00
2019-05-23T02:54:41.889Z,12.00
2019-05-23T02:55:41.882Z,12.00
2019-05-23T02:56:41.911Z,12.00
2019-05-23T02:57:41.868Z,16.00
2019-05-23T02:58:41.876Z,20.00
2019-05-23T02:59:41.847Z,20.00
2019-05-23T03:00:53.526Z,24.00
2019-05-23T03:01:42.890Z,24.00
2019-05-23T03:02:41.817Z,28.00
2019-05-23T03:03:41.862Z,32.00
2019-05-23T03:04:41.843Z,40.00
2019-05-23T03:05:41.806Z,40.00
2019-05-23T03:06:41.767Z,48.00
2019-05-23T03:07:41.755Z,52.00
2019-05-23T03:08:41.828Z,60.00
2019-05-23T03:09:41.747Z,64.00
2019-05-23T03:10:41.821Z,72.00
2019-05-23T03:11:41.718Z,80.00
2019-05-23T03:12:41.732Z,88.00
2019-05-23T03:13:41.779Z,96.00
2019-05-23T03:14:41.694Z,104.00
2019-05-23T03:15:41.716Z,112.00
2019-05-23T03:16:41.657Z,120.00
2019-05-23T03:17:41.688Z,132.00
2019-05-23T03:18:41.687Z,140.00
2019-05-23T03:19:41.626Z,152.00
2019-05-23T03:20:41.625Z,168.00
2019-05-23T03:21:41.650Z,180.00
2019-05-23T03:22:41.601Z,196.00
2019-05-23T03:23:41.612Z,208.00
2019-05-23T03:24:41.578Z,224.00
2019-05-23T03:25:41.566Z,244.00
2019-05-23T03:26:41.592Z,264.00
2019-05-23T03:27:41.556Z,284.00
2019-05-23T03:28:41.531Z,304.00
2019-05-23T03:29:41.589Z,324.00
2019-05-23T03:30:41.613Z,352.00
2019-05-23T03:31:41.504Z,380.00
2019-05-23T03:32:41.492Z,408.00
2019-05-23T03:33:41.529Z,440.00
2019-05-23T03:34:41.472Z,468.00
2019-05-23T03:35:41.468Z,504.00
2019-05-23T03:36:41.559Z,540.00
2019-05-23T03:37:41.444Z,580.00
2019-05-23T03:38:41.478Z,616.00
2019-05-23T03:39:41.421Z,656.00
2019-05-23T03:40:41.418Z,700.00
2019-05-23T03:41:41.421Z,740.00
2019-05-23T03:42:41.436Z,780.00
2019-05-23T03:43:41.414Z,828.00
2019-05-23T03:44:41.367Z,876.00
2019-05-23T03:45:41.378Z,924.00
2019-05-23T03:46:41.352Z,980.00
2019-05-23T03:47:41.330Z,1040.00
2019-05-23T03:48:41.432Z,1100.00
2019-05-23T03:49:41.313Z,1168.00
2019-05-23T03:50:41.309Z,1236.00
2019-05-23T03:51:41.302Z,1300.00
2019-05-23T03:52:41.289Z,1368.00
2019-05-23T03:53:41.318Z,1432.00
2019-05-23T03:54:41.350Z,1504.00
2019-05-23T03:55:41.252Z,1576.00
2019-05-23T03:56:41.239Z,1640.00
2019-05-23T03:57:41.237Z,1704.00
2019-05-23T03:58:41.225Z,1760.00
2019-05-23T03:59:41.353Z,1800.00
2019-05-23T04:00:41.207Z,1820.00
2019-05-23T04:01:48.285Z,1820.00
2019-05-23T04:02:42.189Z,1828.00
2019-05-23T04:03:41.218Z,1840.00
2019-05-23T04:04:41.160Z,1852.00
2019-05-23T04:05:41.151Z,1860.00
2019-05-23T04:06:41.190Z,1868.00
2019-05-23T04:07:41.147Z,1892.00
2019-05-23T04:08:41.116Z,1928.00
2019-05-23T04:09:41.124Z,1956.00
2019-05-23T04:10:41.108Z,1976.00
2019-05-23T04:11:41.136Z,1980.00
2019-05-23T04:12:41.080Z,1988.00
2019-05-23T04:13:41.098Z,2004.00
2019-05-23T04:14:41.052Z,2012.00
2019-05-23T04:15:41.046Z,2020.00
2019-05-23T04:16:41.033Z,2024.00
2019-05-23T04:17:41.076Z,2032.00
2019-05-23T04:18:41.021Z,2040.00
2019-05-23T04:19:41.038Z,2048.00
2019-05-23T04:20:41.001Z,2052.00
2019-05-23T04:21:40.983Z,2044.00
2019-05-23T04:22:41.130Z,2028.00
2019-05-23T04:23:40.964Z,2008.00
2019-05-23T04:24:40.951Z,2000.00
2019-05-23T04:25:40.985Z,1980.00
2019-05-23T04:26:41.011Z,1960.00
2019-05-23T04:27:40.918Z,1940.00
2019-05-23T04:28:40.908Z,1936.00
2019-05-23T04:29:40.942Z,1940.00
2019-05-23T04:30:40.888Z,1940.00
2019-05-23T04:31:40.881Z,1936.00
2019-05-23T04:32:40.871Z,1936.00
2019-05-23T04:33:40.885Z,1944.00
2019-05-23T04:34:40.918Z,1952.00
2019-05-23T04:35:40.837Z,1968.00
2019-05-23T04:36:40.828Z,1984.00
2019-05-23T04:37:40.840Z,2004.00
2019-05-23T04:38:40.835Z,2020.00
2019-05-23T04:39:40.842Z,2044.00
2019-05-23T04:40:40.837Z,2064.00
2019-05-23T04:41:40.808Z,2088.00
2019-05-23T04:42:40.806Z,2132.00
2019-05-23T04:43:40.761Z,2180.00
2019-05-23T04:44:43.968Z,2224.00
2019-05-23T04:45:40.768Z,2276.00
2019-05-23T04:46:40.718Z,2328.00
2019-05-23T04:47:40.774Z,2380.00
2019-05-23T04:48:40.701Z,2428.00
2019-05-23T04:49:40.732Z,2468.00
2019-05-23T04:50:41.589Z,2512.00
2019-05-23T04:51:40.719Z,2544.00
2019-05-23T04:52:40.696Z,2568.00
2019-05-23T04:53:40.644Z,2588.00
2019-05-23T04:54:40.647Z,2612.00
2019-05-23T04:55:40.659Z,2640.00
2019-05-23T04:56:40.665Z,2656.00
2019-05-23T04:57:40.603Z,2644.00
2019-05-23T04:58:40.597Z,2700.00
2019-05-23T04:59:40.586Z,2712.00
2019-05-23T05:00:40.638Z,2720.00
2019-05-23T05:01:40.600Z,2728.00
2019-05-23T05:02:40.544Z,2724.00
2019-05-23T05:03:40.551Z,2728.00
2019-05-23T05:04:40.601Z,2752.00
2019-05-23T05:05:40.852Z,2780.00
2019-05-23T05:06:40.512Z,2804.00
2019-05-23T05:07:40.566Z,2828.00
2019-05-23T05:08:40.494Z,2868.00
2019-05-23T05:09:40.477Z,2904.00
2019-05-23T05:10:40.462Z,2944.00
2019-05-23T05:11:40.460Z,2996.00
2019-05-23T05:12:40.489Z,3032.00
2019-05-23T05:13:40.546Z,3064.00
2019-05-23T05:14:40.434Z,3096.00
2019-05-23T05:15:40.415Z,3128.00
2019-05-23T05:16:40.402Z,3152.00
2019-05-23T05:17:40.436Z,3172.00
2019-05-23T05:18:40.381Z,3188.00
2019-05-23T05:19:40.419Z,3204.00
2019-05-23T05:20:40.373Z,3220.00
2019-05-23T05:21:40.354Z,3248.00
2019-05-23T05:22:40.393Z,3284.00
2019-05-23T05:23:40.330Z,3300.00
2019-05-23T05:24:40.527Z,3324.00
2019-05-23T05:25:40.385Z,3340.00
2019-05-23T05:26:40.350Z,3344.00
2019-05-23T05:27:40.304Z,3368.00
2019-05-23T05:28:40.274Z,3392.00
2019-05-23T05:29:40.321Z,3412.00
2019-05-23T05:30:40.307Z,3416.00
2019-05-23T05:31:40.299Z,3480.00
2019-05-23T05:32:44.870Z,3516.00
2019-05-23T05:33:41.221Z,3548.00
2019-05-23T05:34:40.251Z,3556.00
2019-05-23T05:35:40.199Z,3564.00
2019-05-23T05:36:40.189Z,3576.00
2019-05-23T05:37:40.208Z,3572.00
2019-05-23T05:38:40.169Z,3560.00
2019-05-23T05:39:40.187Z,3548.00
2019-05-23T05:40:40.225Z,3528.00
2019-05-23T05:41:40.132Z,3496.00
2019-05-23T05:42:40.185Z,3476.00
2019-05-23T05:43:40.150Z,3472.00
2019-05-23T05:44:40.165Z,3472.00
2019-05-23T05:45:40.104Z,3464.00
2019-05-23T05:46:40.261Z,3456.00
2019-05-23T05:47:40.065Z,3464.00
2019-05-23T05:48:40.082Z,3452.00
2019-05-23T05:49:42.303Z,3444.00
2019-05-23T05:50:40.040Z,3456.00
2019-05-23T05:51:40.070Z,3436.00
2019-05-23T05:52:40.017Z,3416.00
2019-05-23T05:53:40.045Z,3388.00
2019-05-23T05:54:39.993Z,3376.00
2019-05-23T05:55:40.047Z,3384.00
2019-05-23T05:56:39.975Z,3384.00
2019-05-23T05:57:39.970Z,3388.00
2019-05-23T05:58:40.004Z,3384.00
2019-05-23T05:59:39.973Z,3412.00
2019-05-23T06:00:39.936Z,3404.00
2019-05-23T06:01:39.919Z,3408.00
2019-05-23T06:02:39.909Z,3428.00
2019-05-23T06:03:39.945Z,3428.00
2019-05-23T06:04:39.933Z,3444.00
2019-05-23T06:05:39.921Z,3456.00
2019-05-23T06:06:39.866Z,3468.00
2019-05-23T06:07:39.902Z,3484.00
2019-05-23T06:08:39.850Z,3520.00
2019-05-23T06:09:39.838Z,3548.00
2019-05-23T06:10:39.863Z,3560.00
2019-05-23T06:11:39.865Z,3560.00
2019-05-23T06:12:39.803Z,3556.00
2019-05-23T06:13:39.791Z,3580.00
2019-05-23T06:14:39.797Z,3636.00
2019-05-23T06:15:39.808Z,3676.00
2019-05-23T06:16:39.794Z,3720.00
2019-05-23T06:17:39.774Z,3752.00
2019-05-23T06:18:39.740Z,3768.00
2019-05-23T06:19:39.774Z,3788.00
2019-05-23T06:20:40.938Z,3816.00
2019-05-23T06:21:39.759Z,3840.00
2019-05-23T06:22:39.697Z,3848.00
2019-05-23T06:23:39.692Z,3860.00
2019-05-23T06:24:47.883Z,3868.00
2019-05-23T06:25:40.663Z,3868.00
2019-05-23T06:26:39.718Z,3876.00
2019-05-23T06:27:39.647Z,3896.00
2019-05-23T06:28:39.631Z,3900.00
2019-05-23T06:29:39.626Z,3896.00
2019-05-23T06:30:39.708Z,3900.00
2019-05-23T06:31:39.677Z,3900.00
2019-05-23T06:32:39.593Z,3900.00
2019-05-23T06:33:39.625Z,3896.00
2019-05-23T06:34:39.568Z,3888.00
2019-05-23T06:35:39.564Z,3912.00
2019-05-23T06:36:39.573Z,3916.00
2019-05-23T06:37:39.534Z,3920.00
2019-05-23T06:38:39.571Z,3920.00
2019-05-23T06:39:39.534Z,3936.00
2019-05-23T06:40:39.693Z,3940.00
2019-05-23T06:41:39.530Z,3936.00
2019-05-23T06:42:39.491Z,3944.00
2019-05-23T06:43:39.552Z,3948.00
2019-05-23T06:44:39.476Z,3940.00
2019-05-23T06:45:39.453Z,3928.00
2019-05-23T06:46:39.494Z,3968.00
2019-05-23T06:47:39.443Z,3992.00
2019-05-23T06:48:39.465Z,3996.00
2019-05-23T06:49:39.413Z,3988.00
2019-05-23T06:50:39.398Z,4000.00
2019-05-23T06:51:39.489Z,4004.00
2019-05-23T06:52:39.376Z,4016.00
2019-05-23T06:53:39.367Z,4032.00
2019-05-23T06:54:39.358Z,4048.00
2019-05-23T06:55:39.350Z,4076.00
2019-05-23T06:56:39.396Z,4080.00
2019-05-23T06:57:39.328Z,4096.00
2019-05-23T06:58:39.315Z,4096.00
2019-05-23T06:59:39.356Z,4092.00
2019-05-23T07:00:39.293Z,4112.00
2019-05-23T07:01:39.284Z,4104.00
2019-05-23T07:02:39.330Z,4124.00
2019-05-23T07:03:43.151Z,4144.00
2019-05-23T07:04:39.298Z,4152.00
2019-05-23T07:05:39.242Z,4176.00
2019-05-23T07:06:39.284Z,4204.00
2019-05-23T07:07:39.222Z,4224.00
2019-05-23T07:08:39.205Z,4236.00
2019-05-23T07:09:39.218Z,4248.00
2019-05-23T07:10:39.197Z,4280.00
2019-05-23T07:11:39.233Z,4300.00
2019-05-23T07:12:39.195Z,4328.00
2019-05-23T07:13:39.170Z,4372.00
2019-05-23T07:14:39.158Z,4388.00
2019-05-23T07:15:39.210Z,4428.00
2019-05-23T07:16:39.184Z,4468.00
2019-05-23T07:17:39.172Z,4496.00
2019-05-23T07:18:39.110Z,4516.00
2019-05-23T07:19:40.102Z,4540.00
2019-05-23T07:20:39.142Z,4544.00
2019-05-23T07:21:39.088Z,4524.00
2019-05-23T07:22:39.085Z,4544.00
2019-05-23T07:23:39.121Z,4532.00
2019-05-23T07:24:55.181Z,4540.00
2019-05-23T07:25:40.192Z,4560.00
2019-05-23T07:26:39.050Z,4532.00
2019-05-23T07:27:39.065Z,4564.00
2019-05-23T07:28:39.041Z,4608.00
2019-05-23T07:29:39.054Z,4680.00
2019-05-23T07:30:38.971Z,4672.00
2019-05-23T07:31:38.956Z,4772.00
2019-05-23T07:32:38.954Z,4860.00
2019-05-23T07:33:38.984Z,4948.00
2019-05-23T07:34:38.929Z,5020.00
2019-05-23T07:35:38.946Z,5032.00
2019-05-23T07:36:38.951Z,5092.00
2019-05-23T07:37:39.009Z,5100.00
2019-05-23T07:38:38.908Z,5156.00
2019-05-23T07:39:38.872Z,5172.00
2019-05-23T07:40:38.913Z,5168.00
2019-05-23T07:41:38.894Z,5120.00
2019-05-23T07:42:38.844Z,5188.00
2019-05-23T07:43:38.841Z,5264.00
2019-05-23T07:44:47.892Z,5352.00
2019-05-23T07:45:40.100Z,5424.00
2019-05-23T07:46:38.836Z,5428.00
2019-05-23T07:47:40.244Z,5448.00
2019-05-23T07:48:38.781Z,5460.00
2019-05-23T07:49:38.788Z,5476.00
2019-05-23T07:50:38.772Z,5552.00
2019-05-23T07:51:38.805Z,5616.00
2019-05-23T07:52:38.764Z,5624.00
2019-05-23T07:53:38.736Z,5612.00
2019-05-23T07:54:38.716Z,5568.00
2019-05-23T07:55:38.731Z,5616.00
2019-05-23T07:56:38.748Z,5692.00
2019-05-23T07:57:38.695Z,5668.00
2019-05-23T07:58:38.738Z,5608.00
2019-05-23T07:59:38.673Z,5588.00
2019-05-23T08:00:38.661Z,5568.00
2019-05-23T08:01:38.735Z,5576.00
2019-05-23T08:02:38.677Z,5620.00
2019-05-23T08:03:38.624Z,5676.00
2019-05-23T08:04:38.601Z,5688.00
2019-05-23T08:05:38.597Z,5676.00
2019-05-23T08:06:38.672Z,5644.00
2019-05-23T08:07:38.574Z,5688.00
2019-05-23T08:08:38.561Z,5652.00
2019-05-23T08:09:38.573Z,5596.00
2019-05-23T08:10:38.555Z,5568.00
2019-05-23T08:11:38.585Z,5628.00
2019-05-23T08:12:38.517Z,5668.00
2019-05-23T08:13:38.524Z,5632.00
2019-05-23T08:14:38.509Z,5600.00
2019-05-23T08:15:38.714Z,5696.00
2019-05-23T08:16:38.536Z,5748.00
2019-05-23T08:17:38.613Z,5716.00
2019-05-23T08:18:38.497Z,5748.00
2019-05-23T08:19:48.942Z,5796.00
2019-05-23T08:20:39.453Z,5832.00
2019-05-23T08:21:38.535Z,5836.00
2019-05-23T08:22:38.415Z,5892.00
2019-05-23T08:23:38.416Z,5920.00
2019-05-23T08:24:38.420Z,5944.00
2019-05-23T08:25:38.381Z,5988.00
2019-05-23T08:26:38.432Z,6028.00
2019-05-23T08:27:38.402Z,6024.00
2019-05-23T08:28:56.302Z,6032.00
2019-05-23T08:29:39.340Z,6060.00
2019-05-23T08:30:38.332Z,6124.00
2019-05-23T08:31:38.374Z,6128.00
2019-05-23T08:32:38.420Z,6092.00
2019-05-23T08:33:38.300Z,6148.00
2019-05-23T08:34:42.194Z,6220.00
2019-05-23T08:35:38.274Z,6284.00
2019-05-23T08:36:38.259Z,6220.00
2019-05-23T08:37:38.300Z,6192.00
2019-05-23T08:38:38.281Z,6220.00
2019-05-23T08:39:38.232Z,6272.00
2019-05-23T08:40:38.270Z,6300.00
2019-05-23T08:41:38.211Z,6260.00
2019-05-23T08:42:38.196Z,6292.00
2019-05-23T08:43:38.195Z,6344.00
2019-05-23T08:44:38.195Z,6432.00
2019-05-23T08:45:38.225Z,6560.00
2019-05-23T08:46:38.163Z,6624.00
2019-05-23T08:47:38.222Z,6600.00
2019-05-23T08:48:38.182Z,6576.00
2019-05-23T08:49:38.124Z,6664.00
2019-05-23T08:50:39.105Z,6760.00
2019-05-23T08:51:38.113Z,6780.00
2019-05-23T08:52:38.141Z,6724.00
2019-05-23T08:53:38.124Z,6784.00
2019-05-23T08:54:38.097Z,6872.00
2019-05-23T08:55:38.058Z,6848.00
2019-05-23T08:56:38.098Z,6960.00
2019-05-23T08:57:38.038Z,7076.00
2019-05-23T08:58:38.135Z,7080.00
2019-05-23T08:59:38.035Z,7144.00
2019-05-23T09:00:38.193Z,7168.00
2019-05-23T09:01:38.038Z,7180.00
2019-05-23T09:02:37.988Z,7252.00
2019-05-23T09:03:38.017Z,7304.00
2019-05-23T09:04:37.967Z,7312.00
2019-05-23T09:05:37.966Z,7300.00
2019-05-23T09:06:37.972Z,7292.00
2019-05-23T09:07:37.951Z,7192.00
2019-05-23T09:08:38.019Z,7224.00
2019-05-23T09:09:37.934Z,7284.00
2019-05-23T09:10:37.919Z,7284.00
2019-05-23T09:11:37.896Z,7316.00
2019-05-23T09:12:37.916Z,7364.00
2019-05-23T09:13:37.927Z,7356.00
2019-05-23T09:14:38.010Z,7540.00
2019-05-23T09:15:37.946Z,7676.00
2019-05-23T09:16:37.843Z,7760.00
2019-05-23T09:17:52.464Z,7668.00
2019-05-23T09:18:38.857Z,7524.00
2019-05-23T09:19:37.816Z,7456.00
2019-05-23T09:20:37.825Z,7408.00
2019-05-23T09:21:37.859Z,7532.00
2019-05-23T09:22:37.779Z,7656.00
2019-05-23T09:23:37.789Z,7800.00
2019-05-23T09:24:37.759Z,7896.00
2019-05-23T09:25:37.744Z,7920.00
2019-05-23T09:26:37.777Z,7944.00
2019-05-23T09:27:37.737Z,8004.00
2019-05-23T09:28:37.713Z,8112.00
2019-05-23T09:29:37.698Z,8256.00
2019-05-23T09:30:37.690Z,8436.00
2019-05-23T09:31:37.722Z,8696.00
2019-05-23T09:32:37.672Z,8980.00
2019-05-23T09:33:37.735Z,9012.00
2019-05-23T09:34:37.649Z,9016.00
2019-05-23T09:35:37.649Z,8876.00
2019-05-23T09:36:37.628Z,8836.00
2019-05-23T09:37:37.664Z,8824.00
2019-05-23T09:38:37.617Z,8612.00
2019-05-23T09:39:37.599Z,8336.00
2019-05-23T09:40:37.682Z,8252.00
2019-05-23T09:41:37.628Z,8040.00
2019-05-23T09:42:37.576Z,7952.00
2019-05-23T09:43:38.115Z,7944.00
2019-05-23T09:44:37.599Z,8176.00
2019-05-23T09:45:37.535Z,8448.00
2019-05-23T09:46:37.555Z,8572.00
2019-05-23T09:47:37.557Z,8780.00
2019-05-23T09:48:37.614Z,8868.00
2019-05-23T09:49:37.526Z,8992.00
2019-05-23T09:50:37.574Z,9088.00
2019-05-23T09:51:37.657Z,9284.00
2019-05-23T09:52:37.463Z,9524.00
2019-05-23T09:53:37.502Z,9864.00
2019-05-23T09:54:37.446Z,10212.00
2019-05-23T09:55:37.427Z,10612.00
2019-05-23T09:56:37.469Z,10792.00
2019-05-23T09:57:37.657Z,10912.00
2019-05-23T09:58:37.411Z,11404.00
2019-05-23T09:59:37.415Z,11752.00
2019-05-23T10:00:37.379Z,11972.00
2019-05-23T10:01:37.417Z,12140.00
2019-05-23T10:02:37.482Z,12180.00
2019-05-23T10:03:37.351Z,11960.00
2019-05-23T10:04:37.380Z,11588.00
2019-05-23T10:05:43.479Z,11164.00
2019-05-23T10:06:38.311Z,10896.00
2019-05-23T10:07:37.301Z,10592.00
2019-05-23T10:08:37.295Z,10820.00
2019-05-23T10:09:37.344Z,11424.00
2019-05-23T10:10:37.272Z,11264.00
2019-05-23T10:11:37.284Z,11668.00
2019-05-23T10:12:37.248Z,11644.00
2019-05-23T10:13:39.484Z,11776.00
2019-05-23T10:14:37.305Z,11852.00
2019-05-23T10:15:37.214Z,11896.00
2019-05-23T10:16:37.227Z,11604.00
2019-05-23T10:17:37.210Z,11040.00
2019-05-23T10:18:37.269Z,11644.00
2019-05-23T10:19:37.170Z,11704.00
2019-05-23T10:20:37.188Z,11924.00
2019-05-23T10:21:37.190Z,12012.00
2019-05-23T10:22:37.141Z,12196.00
2019-05-23T10:23:37.174Z,12336.00
2019-05-23T10:24:37.124Z,12532.00
2019-05-23T10:25:37.184Z,12944.00
2019-05-23T10:26:37.091Z,13172.00
2019-05-23T10:27:37.080Z,13196.00
2019-05-23T10:28:37.079Z,13400.00
2019-05-23T10:29:37.073Z,13612.00
2019-05-23T10:30:37.097Z,13940.00
2019-05-23T10:31:37.077Z,13676.00
2019-05-23T10:32:37.045Z,14292.00
2019-05-23T10:33:37.045Z,14520.00
2019-05-23T10:34:37.053Z,14848.00
2019-05-23T10:35:37.012Z,15248.00
2019-05-23T10:36:37.055Z,15236.00
2019-05-23T10:37:36.986Z,15188.00
2019-05-23T10:38:37.014Z,15200.00
2019-05-23T10:39:37.052Z,15308.00
2019-05-23T10:40:36.950Z,15348.00
2019-05-23T10:41:37.014Z,15228.00
2019-05-23T10:42:36.927Z,14920.00
2019-05-23T10:43:36.959Z,14764.00
2019-05-23T10:44:36.927Z,14392.00
2019-05-23T10:45:36.895Z,14332.00
2019-05-23T10:46:36.893Z,15320.00
2019-05-23T10:47:37.133Z,14468.00
2019-05-23T10:48:36.862Z,12592.00
2019-05-23T10:49:36.865Z,14272.00
2019-05-23T10:50:44.742Z,18208.00
2019-05-23T10:51:37.873Z,18496.00
2019-05-23T10:52:36.883Z,37504.00
2019-05-23T10:53:36.884Z,75904.00
2019-05-23T10:54:36.835Z,84256.00
2019-05-23T10:55:36.803Z,83424.00
2019-05-23T10:56:36.811Z,85728.00
2019-05-23T10:57:36.781Z,80000.00
2019-05-23T10:58:36.833Z,99136.00
2019-05-23T10:59:36.770Z,78400.00
2019-05-23T11:00:36.731Z,77408.00
2019-05-23T11:01:36.730Z,56960.00
2019-05-23T11:02:36.730Z,23360.00
2019-05-23T11:03:36.759Z,18688.00
2019-05-23T11:04:36.770Z,57088.00
2019-05-23T11:05:36.725Z,76320.00
2019-05-23T11:06:36.673Z,17152.00
2019-05-23T11:07:36.691Z,17856.00
2019-05-23T11:08:36.721Z,20544.00
2019-05-23T11:09:38.519Z,74752.00
2019-05-23T11:10:36.636Z,139392.00
2019-05-23T11:11:36.652Z,28832.00
2019-05-23T11:12:36.622Z,30848.00
2019-05-23T11:13:36.655Z,26880.00
2019-05-23T11:14:36.803Z,44160.00
2019-05-23T11:15:36.597Z,50944.00
2019-05-23T11:16:36.618Z,9632.00
2019-05-23T11:17:36.577Z,76672.00
2019-05-23T11:18:36.609Z,58400.00
2019-05-23T11:19:36.577Z,79808.00
2019-05-23T11:20:36.580Z,62464.00
2019-05-23T11:21:36.563Z,77504.00
2019-05-23T11:22:36.563Z,73664.00
2019-05-23T11:23:36.516Z,79936.00
2019-05-23T11:24:36.506Z,82816.00
2019-05-23T11:25:36.561Z,86144.00
2019-05-23T11:26:36.518Z,87424.00
2019-05-23T11:27:36.570Z,86656.00
2019-05-23T11:28:36.480Z,87040.00
2019-05-23T11:29:36.478Z,85888.00
2019-05-23T11:30:36.438Z,85248.00
2019-05-23T11:31:36.460Z,85312.00
2019-05-23T11:32:36.459Z,84352.00
2019-05-23T11:33:36.486Z,85952.00
2019-05-23T11:34:36.435Z,43392.00
2019-05-23T11:35:36.386Z,23584.00
2019-05-23T11:36:37.115Z,60576.00
2019-05-23T11:37:36.369Z,44896.00
2019-05-23T11:38:36.411Z,55616.00
2019-05-23T11:39:42.219Z,29152.00
2019-05-23T11:40:37.362Z,20672.00
2019-05-23T11:41:36.371Z,19808.00
2019-05-23T11:42:36.339Z,43936.00
2019-05-23T11:43:36.314Z,63360.00
2019-05-23T11:44:36.325Z,34304.00
2019-05-23T11:45:45.142Z,20896.00
2019-05-23T11:46:37.405Z,70464.00
2019-05-23T11:47:36.280Z,20288.00
2019-05-23T11:48:36.249Z,17888.00
2019-05-23T11:49:36.252Z,24352.00
2019-05-23T11:50:36.223Z,68960.00
2019-05-23T11:51:36.348Z,33568.00
2019-05-23T11:52:36.213Z,33216.00
2019-05-23T11:53:36.238Z,80320.00
2019-05-23T11:54:36.182Z,84128.00
2019-05-23T11:55:36.222Z,80768.00
2019-05-23T11:56:36.529Z,82144.00
2019-05-23T11:57:37.829Z,81760.00
2019-05-23T11:58:36.163Z,80736.00
2019-05-23T11:59:36.126Z,55008.00
2019-05-23T12:00:36.172Z,28352.00
2019-05-23T12:01:36.171Z,59968.00
2019-05-23T12:02:36.103Z,20320.00
2019-05-23T12:03:36.105Z,19168.00
2019-05-23T12:04:36.089Z,18848.00
2019-05-23T12:05:36.149Z,19264.00
2019-05-23T12:06:53.637Z,27936.00
2019-05-23T12:07:37.089Z,38368.00
2019-05-23T12:08:36.059Z,74816.00
2019-05-23T12:09:36.029Z,72704.00
2019-05-23T12:10:36.115Z,64896.00
2019-05-23T12:11:41.912Z,80672.00
2019-05-23T12:12:37.004Z,78080.00
2019-05-23T12:13:35.998Z,76672.00
2019-05-23T12:14:36.002Z,66880.00
2019-05-23T12:15:36.139Z,75520.00
2019-05-23T12:16:35.964Z,77344.00
2019-05-23T12:17:36.002Z,78080.00
2019-05-23T12:18:35.980Z,82272.00
2019-05-23T12:19:36.056Z,81856.00